Pagina principale
METAR-TAF:

METAR-TAF

Aeroporti :

Jendouba, Tunisia

latitudine: 36-29N, longitudine: 008-48E, altezza: 143 m

Osservazione

Il bollettino è stato emesso 37 minuti fa, alle 19:00 UTC
Vento 3 kt da direzioni variabili
Temperature 18°C
Umidità 64%
Pressione 1011 hPa
Visibilità: 8000 m
Nubi sparse ad un'altezza di 2000 ft

METAR: DTTN 191900Z VRB03KT 8000 SCT020 18/11 Q1011

Ora: 20:37 (19:37 UTC)


TAF: mancante

Osservazioni e previsioni meteorologiche di più di 4000 aeroporti (messaggi METAR e TAF).

Le stazioni disponibili sono rappresentate dai dischi gialli e rossi sulla carta.

Puntare il mouse per vedere il nome della stazione.

Clicca sopra per visualizzare le osservazioni e previsioni meteorologiche.

Per cambiare la mappa : fare clic sui pulsanti verdi con una croce nera per ingrandire, il pulsante verde con un trattino per diminuire, o sulla freccia verde per le mappe adiacenti.


METAR-TAF: